Terminal Aerodrome Forecast
Issued by NWS Mt. Holly, NJ

Home | Current Version | Previous Version | Text Only | Print | Product List | Glossary On
Versions: 1 2 3 4 5 6 7 8 9 10 11 12 13 14 15 16 17 18 19 20
743
FTUS41 KPHI 191514 AAA
TAFACY
TAF AMD
KACY 191514Z 1915/2012 29020G40KT P6SM BKN040
     FM191900 29016G33KT P6SM SCT040
     FM192200 29013G24KT P6SM SKC
     FM200300 28012KT P6SM SKC=

USA.gov is the U.S. government's official web portal to all federal, state and local government web resources and services.